This is the latest recevied weather packets stored in our database for station/object EPGD. If no packets are shown the sender has not sent any weather packets the latest 10 day(s).
| Time | Temp. | Humidity | Pressure | Rain* | Wind** | Luminosity | Snow |
|---|---|---|---|---|---|---|---|
| 1777527304 | 3.89° C | 51% | 1030 hPa | - | - | - | - |
| 1777525504 | 3.89° C | 48% | 1030 hPa | - | - | - | - |
| 1777523703 | 2.78° C | 51% | 1030 hPa | - | - | - | - |
| 1777521904 | 2.78° C | 47% | 1030 hPa | - | - | - | - |
| 1777520104 | 1.67° C | 59% | 1030 hPa | - | - | - | - |
| 1777518304 | 0.56° C | 64% | 1030 hPa | - | - | - | - |
| 1777516504 | 0° C | 69% | 1030 hPa | - | - | - | - |
| 1777514704 | 0° C | 63% | 1030 hPa | - | - | - | - |
| 1777512904 | 0° C | 63% | 1030 hPa | - | - | - | - |
| 1777511104 | 0° C | 59% | 1030 hPa | - | - | - | - |
| 1777509304 | -1.11° C | 63% | 1030 hPa | - | - | - | - |
| 1777507504 | 0° C | 59% | 1030 hPa | - | - | - | - |
| 1777505704 | 0° C | 59% | 1031 hPa | - | - | - | - |
| 1777503904 | 0° C | 54% | 1031 hPa | - | - | - | - |
| 1777502104 | 0.56° C | 50% | 1030 hPa | - | - | - | - |
| 1777500304 | 0.56° C | 50% | 1030 hPa | - | - | - | - |
| 1777498504 | 0.56° C | 50% | 1030 hPa | - | - | - | - |
| 1777496704 | 1.67° C | 47% | 1030 hPa | - | - | - | - |
| 1777494904 | 1.67° C | 47% | 1030 hPa | - | - | - | - |
| 1777493104 | 2.78° C | 44% | 1030 hPa | - | - | - | - |
| 1777491303 | 2.78° C | 44% | 1030 hPa | - | - | - | - |
| 1777489505 | 3.89° C | 38% | 1030 hPa | - | - | - | - |
| 1777487703 | 5° C | 35% | 1030 hPa | - | - | - | - |
| 1777485904 | 5° C | 41% | 1030 hPa | - | - | - | - |
| 1777484104 | 5.56° C | 41% | 1030 hPa | - | - | - | - |
* Rain since midnight (hover to see other rain measurements)
** Current wind speed in m/s (hover to see current wind gust speed)